Centerbrook, Connecticut
Current Conditions -  °F | °C
As of 10:35 PM on Wednesday 22 Oct 2014 (Local Time) from KSNC Reporting Station
Heavy Rain Heavy Rain  
Wind Chill: 50°   Ceiling: 3000
Heat Index: 50°   Visibility: 6mi
Dew Point: 46°   Wind: 13mph
Humidity: 87%   Direction: 30°NNE
Pressure: 29.75"   Gusts: 28mph
Location:  41.35°N, 72.42°W
Report Text: KSNC 230235Z AUTO 03011G24KT 6SM +RA SCT017 BKN030 BKN044 10/08 A2975 RMK AO2 P0012
Loading
Personal Weather Stations






























Interactive Weather Map
Tropical Storm Tracking
New forecast layout! Learn more

10-Day Weather Forecast

Advertisements
Track Severe Weather on mobile